createdAt,value
2023-04-09T06:17:14.987Z,4.64
2023-04-09T06:40:02.465Z,4.51
2023-04-09T06:43:05.404Z,4.75
2023-04-09T06:46:07.932Z,5.00
2023-04-09T06:49:10.733Z,4.91
2023-04-09T06:52:13.241Z,4.83
2023-04-09T06:55:17.130Z,4.88
2023-04-09T06:58:21.004Z,5.21
2023-04-09T07:01:23.640Z,5.14
2023-04-09T07:04:26.337Z,5.02
2023-04-09T07:07:29.028Z,5.16
2023-04-09T07:10:33.054Z,5.18
2023-04-09T07:13:35.701Z,4.99
2023-04-09T07:16:38.326Z,4.94
2023-04-09T07:19:40.901Z,5.17
2023-04-09T07:22:43.565Z,5.41
2023-04-09T07:25:47.390Z,5.51
2023-04-09T07:28:49.936Z,5.58
2023-04-09T07:31:52.529Z,5.58
2023-04-09T07:34:55.903Z,5.64
2023-04-09T07:37:59.033Z,5.63
2023-04-09T07:41:02.982Z,5.60
2023-04-09T07:44:06.372Z,5.71
2023-04-09T07:47:09.419Z,5.62
2023-04-09T07:50:12.942Z,5.75
2023-04-09T07:53:15.568Z,5.61
2023-04-09T07:56:19.449Z,5.54
2023-04-09T07:59:21.970Z,5.75
2023-04-09T08:02:24.830Z,5.72
2023-04-09T08:05:28.332Z,6.04
2023-04-09T08:08:31.918Z,6.06
2023-04-09T08:11:36.012Z,5.85
2023-04-09T08:14:38.580Z,5.90
2023-04-09T08:17:41.234Z,5.96
2023-04-09T08:20:45.389Z,6.08
2023-04-09T08:23:51.111Z,6.26
2023-04-09T08:26:54.994Z,5.94
2023-04-09T08:29:57.554Z,5.90
2023-04-09T08:33:00.045Z,5.88
2023-04-09T08:36:03.445Z,6.13
2023-04-09T08:39:06.108Z,6.25
2023-04-09T08:42:12.584Z,6.28
2023-04-09T08:45:15.434Z,6.57
2023-04-09T08:48:19.185Z,6.73
2023-04-09T08:51:23.585Z,6.93
2023-04-09T08:54:26.842Z,6.98
2023-04-09T08:57:31.198Z,6.97
2023-04-09T09:00:33.901Z,6.79
2023-04-09T09:03:56.432Z,6.66
2023-04-09T09:07:07.599Z,6.93
2023-04-09T09:10:10.660Z,7.07
2023-04-09T09:13:23.347Z,7.25
2023-04-09T09:16:26.261Z,7.40
2023-04-09T09:19:31.362Z,7.36
2023-04-09T09:22:55.248Z,7.35
2023-04-09T09:25:58.080Z,7.20
2023-04-09T09:29:05.834Z,7.05
2023-04-09T09:32:14.314Z,7.10
2023-04-09T09:35:17.225Z,6.96
2023-04-09T09:38:19.837Z,7.26
2023-04-09T09:41:22.755Z,7.32
2023-04-09T09:44:34.204Z,7.51
2023-04-09T09:47:37.653Z,7.59
2023-04-09T09:50:42.130Z,7.83
2023-04-09T09:53:48.344Z,7.87
2023-04-09T09:56:56.356Z,7.94
2023-04-09T10:00:03.810Z,7.89
2023-04-09T10:03:13.150Z,8.00
2023-04-09T10:06:15.795Z,8.25
2023-04-09T10:09:19.954Z,8.72
2023-04-09T10:12:24.552Z,8.48
2023-04-09T10:15:30.113Z,8.36
2023-04-09T10:18:33.546Z,8.76
2023-04-09T10:21:43.371Z,8.98
2023-04-09T10:24:47.154Z,8.67
2023-04-09T10:28:00.650Z,8.63
2023-04-09T10:31:05.640Z,9.00
2023-04-09T10:34:10.825Z,8.72
2023-04-09T10:37:16.962Z,8.86
2023-04-09T10:40:20.505Z,9.54
2023-04-09T10:43:23.548Z,10.01
2023-04-09T10:46:29.434Z,9.92
2023-04-09T10:49:38.033Z,9.43
2023-04-09T10:52:42.242Z,9.94
2023-04-09T10:55:49.864Z,10.29
2023-04-09T10:58:52.610Z,10.41
2023-04-09T11:01:56.625Z,10.29
2023-04-09T11:05:07.856Z,10.54
2023-04-09T11:08:11.983Z,10.42
2023-04-09T11:11:16.708Z,10.74
2023-04-09T11:14:20.623Z,10.99
2023-04-09T11:17:24.561Z,10.40
2023-04-09T11:20:27.500Z,9.97
2023-04-09T11:23:30.304Z,9.97
2023-04-09T11:26:37.030Z,9.98
2023-04-09T11:29:39.953Z,10.28
2023-04-09T11:32:44.065Z,10.31
2023-04-09T11:35:46.666Z,10.20
2023-04-09T11:38:50.007Z,10.56
2023-04-09T11:41:53.310Z,11.28
2023-04-09T11:44:56.076Z,11.24
2023-04-09T11:48:00.074Z,10.92
2023-04-09T11:51:03.962Z,11.11
2023-04-09T11:54:07.031Z,12.31
2023-04-09T11:57:09.608Z,11.80
2023-04-09T12:00:13.828Z,11.25
2023-04-09T12:03:17.973Z,12.74
2023-04-09T12:06:22.811Z,12.94
2023-04-09T12:09:25.444Z,11.97
2023-04-09T12:12:27.974Z,11.43
2023-04-09T12:15:33.827Z,11.60
2023-04-09T12:18:38.602Z,11.46
2023-04-09T12:21:48.723Z,12.26
2023-04-09T12:24:51.218Z,11.89
2023-04-09T12:27:54.142Z,11.69
2023-04-09T12:30:57.702Z,11.65
2023-04-09T12:34:01.599Z,11.34
2023-04-09T12:37:04.227Z,11.62
2023-04-09T12:40:08.097Z,13.10
2023-04-09T12:43:10.792Z,12.27
2023-04-09T12:46:13.686Z,11.44
2023-04-09T12:49:18.243Z,11.46
2023-04-09T12:52:22.526Z,11.63
2023-04-09T12:55:25.035Z,13.06
2023-04-09T12:58:27.528Z,14.25
2023-04-09T13:01:30.077Z,14.70
2023-04-09T13:04:34.089Z,13.60
2023-04-09T13:07:36.624Z,12.82
2023-04-09T13:10:39.143Z,12.92
2023-04-09T13:13:42.698Z,13.58
2023-04-09T13:16:45.331Z,13.28
2023-04-09T13:19:49.172Z,13.76
2023-04-09T13:22:52.368Z,14.09
2023-04-09T13:25:55.212Z,13.76
2023-04-09T13:28:58.637Z,13.34
2023-04-09T13:32:02.573Z,13.38
2023-04-09T13:35:07.543Z,13.37
2023-04-09T13:38:10.171Z,13.67
2023-04-09T13:41:12.852Z,13.58
2023-04-09T13:44:15.655Z,13.31
2023-04-09T13:47:18.866Z,12.89
2023-04-09T13:50:22.710Z,13.13
2023-04-09T13:53:25.218Z,13.69
2023-04-09T13:56:28.565Z,13.75
2023-04-09T13:59:31.090Z,13.83
2023-04-09T14:02:33.720Z,13.44
2023-04-09T14:05:37.737Z,13.02
2023-04-09T14:08:40.391Z,13.13
2023-04-09T14:11:42.874Z,13.00
2023-04-09T14:14:45.466Z,12.49
2023-04-09T14:17:48.054Z,12.69
2023-04-09T14:20:51.995Z,13.21
2023-04-09T14:23:54.478Z,13.24
2023-04-09T14:26:57.102Z,13.08
2023-04-09T14:29:59.585Z,13.19
2023-04-09T14:33:02.387Z,13.11
2023-04-09T14:36:06.999Z,12.95
2023-04-09T14:39:09.804Z,13.27
2023-04-09T14:42:12.602Z,13.27
2023-04-09T14:45:15.708Z,12.85
2023-04-09T14:48:18.311Z,12.35
2023-04-09T14:51:22.218Z,12.04
2023-04-09T14:54:24.840Z,11.63
2023-04-09T14:57:27.345Z,11.71
2023-04-09T15:00:29.846Z,11.90
2023-04-09T15:03:32.594Z,12.28
2023-04-09T15:06:37.125Z,12.53
2023-04-09T15:09:39.623Z,12.43
2023-04-09T15:12:42.333Z,13.09
2023-04-09T15:15:45.312Z,13.13
2023-04-09T15:18:51.331Z,13.29
2023-04-09T15:21:56.316Z,13.28
2023-04-09T15:24:58.873Z,13.00
2023-04-09T15:28:01.403Z,12.85
2023-04-09T15:31:03.974Z,12.89
2023-04-09T15:34:06.994Z,12.56
2023-04-09T15:37:11.140Z,12.25
2023-04-09T15:40:14.178Z,12.32
2023-04-09T15:43:17.321Z,11.76
2023-04-09T15:46:19.881Z,11.76
2023-04-09T15:49:22.901Z,11.97
2023-04-09T15:52:27.011Z,11.95
2023-04-09T15:55:29.559Z,11.73
2023-04-09T15:58:32.334Z,12.19
2023-04-09T16:01:36.071Z,12.31
2023-04-09T16:04:38.924Z,12.52
2023-04-09T16:07:42.865Z,12.15
2023-04-09T16:10:45.374Z,12.08
2023-04-09T16:13:47.868Z,11.85
2023-04-09T16:16:50.552Z,11.60
2023-04-09T16:19:53.218Z,11.44
2023-04-09T16:22:57.128Z,11.53
2023-04-09T16:25:59.767Z,11.43
2023-04-09T16:29:04.212Z,11.36
2023-04-09T16:32:06.902Z,11.34
2023-04-09T16:35:09.428Z,11.10
2023-04-09T16:38:13.803Z,10.90
2023-04-09T16:41:16.620Z,10.78
2023-04-09T16:44:19.122Z,10.74
2023-04-09T16:47:21.719Z,10.52
2023-04-09T16:50:24.429Z,10.38
2023-04-09T16:53:28.332Z,10.23
2023-04-09T16:56:30.836Z,10.20
2023-04-09T16:59:33.454Z,10.18
2023-04-09T17:02:39.448Z,10.13
2023-04-09T17:05:42.083Z,10.06
2023-04-09T17:08:46.192Z,10.05
2023-04-09T17:11:49.008Z,9.95
2023-04-09T17:14:51.564Z,9.98
2023-04-09T17:17:54.206Z,10.02
2023-04-09T17:20:57.020Z,9.86
2023-04-09T17:24:02.988Z,9.73
2023-04-09T17:27:05.722Z,9.60
2023-04-09T17:30:09.071Z,9.43
2023-04-09T17:33:12.206Z,9.20
2023-04-09T17:36:14.876Z,9.02
2023-04-09T17:39:18.736Z,8.81
2023-04-09T17:42:22.122Z,8.61
2023-04-09T17:45:24.818Z,8.49
2023-04-09T17:48:28.832Z,8.44
2023-04-09T17:51:32.615Z,8.45
2023-04-09T17:54:36.726Z,8.40
2023-04-09T17:57:39.265Z,8.31
2023-04-09T18:00:42.778Z,8.18
2023-04-09T18:03:45.740Z,8.12
2023-04-09T18:06:48.725Z,8.05
2023-04-09T18:09:52.717Z,7.80
2023-04-09T18:12:55.392Z,7.69
2023-04-09T18:15:57.979Z,7.60
2023-04-09T18:19:00.500Z,7.53
2023-04-09T18:22:03.407Z,7.35
2023-04-09T18:25:08.314Z,7.15
2023-04-09T18:28:10.923Z,6.99
2023-04-09T18:31:13.443Z,6.73
2023-04-09T18:34:16.992Z,6.61
2023-04-09T18:37:19.942Z,6.61
2023-04-09T18:40:23.898Z,6.60
2023-04-09T18:43:26.429Z,6.49
2023-04-09T18:46:30.208Z,6.49
2023-04-09T18:49:32.960Z,6.45
2023-04-09T18:52:38.168Z,6.29
2023-04-09T18:55:42.106Z,6.17
2023-04-09T18:58:44.859Z,6.10
2023-04-09T19:01:47.421Z,6.10
2023-04-09T19:04:50.237Z,6.14
2023-04-09T19:07:58.519Z,6.13
2023-04-09T19:11:02.367Z,6.02
2023-04-09T19:14:04.938Z,5.85
2023-04-09T19:17:07.621Z,5.80
2023-04-09T19:20:10.957Z,5.92
2023-04-09T19:23:13.454Z,5.88
2023-04-09T19:26:18.210Z,5.83
2023-04-09T19:29:20.945Z,5.68
2023-04-09T19:32:23.602Z,5.55
2023-04-09T19:35:26.284Z,5.42
2023-04-09T19:38:28.904Z,5.31
2023-04-09T19:41:33.104Z,5.30
2023-04-09T19:44:35.651Z,5.33
2023-04-09T19:47:38.207Z,5.26
2023-04-09T19:50:43.058Z,5.10
2023-04-09T19:53:47.402Z,5.03
2023-04-09T19:56:51.314Z,4.88
2023-04-09T19:59:54.099Z,4.57
2023-04-09T20:02:57.190Z,4.46
2023-04-09T20:05:59.932Z,4.48
2023-04-09T20:09:02.607Z,4.63
2023-04-09T20:12:08.663Z,4.93
2023-04-09T20:15:12.258Z,4.90
2023-04-09T20:18:14.769Z,4.91
2023-04-09T20:21:17.306Z,4.99
2023-04-09T20:24:19.910Z,4.99
2023-04-09T20:27:23.796Z,4.93
